Главная страница
METAR-TAF:

METAR-TAF

Аэропорты :

Ботсфьорд, Норвегия

широта: 70-38N, долгота: 029-44E, высота над уровнем моря: 10 м

Текущие метеонаблюдения

Эта сводка был подготовлена 11 минут назад, в 15:50 UTC
Ветер 26 Узел от южный-юго-западный
Температура -5°C
Влажность 79%
Давление 996 hPa
Видимость 10 км и более
небольшая облачность на высоте 1200 фута
Отдельные облака на высоте 4000 фута

METAR: ENBS 151550Z 20026KT 9999 FEW012 SCT040 M05/M08 Q0996

Время: 17:01 (16:01 UTC)


TAF: отсутствует

Метеонаблюдения и прогнозы для более 4000 аэропортов (сводки METAR и TAF).

Имеющиеся станции представлены на карте желтыми и красными точками.

Чтобы увидеть название станции, наведите на нее мышь.

Затем щелкните, чтобы увидеть метеонаблюдения и метеопрогнозы.

Управление картой: чтобы увеличить масштаб, щелкните зеленые кнопки с черным крестиком; чтобы уменьшить масштаб, щелкните зеленую кнопку с тире; для просмотра соседних карт щелкайте зеленые стрелки.


METAR-TAF: